sensor_id;sensor_type;location;lat;lon;timestamp;P1;durP1;ratioP1;P2;durP2;ratioP2
6259;SDS011;3163;51.516;4.000;2023-04-23T00:02:11;10.97;;;7.10;;
6259;SDS011;3163;51.516;4.000;2023-04-23T00:04:39;5.83;;;5.00;;
6259;SDS011;3163;51.516;4.000;2023-04-23T00:07:14;12.30;;;8.00;;
6259;SDS011;3163;51.516;4.000;2023-04-23T00:09:40;11.00;;;8.50;;
6259;SDS011;3163;51.516;4.000;2023-04-23T00:12:08;9.77;;;7.37;;
6259;SDS011;3163;51.516;4.000;2023-04-23T00:14:34;11.37;;;7.90;;
6259;SDS011;3163;51.516;4.000;2023-04-23T00:17:00;7.17;;;5.53;;
6259;SDS011;3163;51.516;4.000;2023-04-23T00:19:26;4.90;;;4.20;;
6259;SDS011;3163;51.516;4.000;2023-04-23T00:21:51;5.47;;;4.53;;
6259;SDS011;3163;51.516;4.000;2023-04-23T00:24:17;10.40;;;7.73;;
6259;SDS011;3163;51.516;4.000;2023-04-23T00:26:44;5.97;;;4.60;;
6259;SDS011;3163;51.516;4.000;2023-04-23T00:29:10;6.57;;;3.67;;
6259;SDS011;3163;51.516;4.000;2023-04-23T00:31:35;6.40;;;4.90;;
6259;SDS011;3163;51.516;4.000;2023-04-23T00:34:01;6.87;;;4.27;;
6259;SDS011;3163;51.516;4.000;2023-04-23T00:36:27;6.70;;;5.03;;
6259;SDS011;3163;51.516;4.000;2023-04-23T00:38:52;5.30;;;4.80;;
6259;SDS011;3163;51.516;4.000;2023-04-23T00:41:18;4.83;;;4.10;;
6259;SDS011;3163;51.516;4.000;2023-04-23T00:43:44;3.70;;;3.30;;
6259;SDS011;3163;51.516;4.000;2023-04-23T00:46:10;6.00;;;5.20;;
6259;SDS011;3163;51.516;4.000;2023-04-23T00:48:36;4.30;;;3.90;;
6259;SDS011;3163;51.516;4.000;2023-04-23T00:51:04;4.87;;;3.90;;
6259;SDS011;3163;51.516;4.000;2023-04-23T00:53:30;4.23;;;3.83;;
6259;SDS011;3163;51.516;4.000;2023-04-23T00:55:56;3.90;;;3.50;;
6259;SDS011;3163;51.516;4.000;2023-04-23T00:58:23;5.87;;;3.70;;
6259;SDS011;3163;51.516;4.000;2023-04-23T01:00:49;5.93;;;4.27;;
6259;SDS011;3163;51.516;4.000;2023-04-23T01:03:16;4.77;;;3.93;;
6259;SDS011;3163;51.516;4.000;2023-04-23T01:05:42;4.43;;;3.70;;
6259;SDS011;3163;51.516;4.000;2023-04-23T01:08:10;5.53;;;4.10;;
6259;SDS011;3163;51.516;4.000;2023-04-23T01:10:39;4.63;;;3.90;;
6259;SDS011;3163;51.516;4.000;2023-04-23T01:13:05;5.20;;;4.00;;
6259;SDS011;3163;51.516;4.000;2023-04-23T01:15:31;5.23;;;4.33;;
6259;SDS011;3163;51.516;4.000;2023-04-23T01:17:56;6.33;;;4.93;;
6259;SDS011;3163;51.516;4.000;2023-04-23T01:20:22;4.50;;;3.63;;
6259;SDS011;3163;51.516;4.000;2023-04-23T01:22:48;5.70;;;3.67;;
6259;SDS011;3163;51.516;4.000;2023-04-23T01:25:14;5.07;;;3.70;;
6259;SDS011;3163;51.516;4.000;2023-04-23T01:27:39;5.53;;;3.97;;
6259;SDS011;3163;51.516;4.000;2023-04-23T01:30:05;5.07;;;4.23;;
6259;SDS011;3163;51.516;4.000;2023-04-23T01:32:32;4.40;;;3.50;;
6259;SDS011;3163;51.516;4.000;2023-04-23T01:34:58;6.47;;;5.10;;
6259;SDS011;3163;51.516;4.000;2023-04-23T01:37:24;7.87;;;4.43;;
6259;SDS011;3163;51.516;4.000;2023-04-23T01:39:51;5.83;;;4.50;;
6259;SDS011;3163;51.516;4.000;2023-04-23T01:42:17;9.00;;;5.27;;
6259;SDS011;3163;51.516;4.000;2023-04-23T01:44:43;5.23;;;3.80;;
6259;SDS011;3163;51.516;4.000;2023-04-23T01:47:09;5.30;;;3.97;;
6259;SDS011;3163;51.516;4.000;2023-04-23T01:49:35;3.90;;;3.50;;
6259;SDS011;3163;51.516;4.000;2023-04-23T01:52:01;4.30;;;3.87;;
6259;SDS011;3163;51.516;4.000;2023-04-23T01:54:27;6.43;;;3.97;;
6259;SDS011;3163;51.516;4.000;2023-04-23T01:56:53;5.03;;;3.83;;
6259;SDS011;3163;51.516;4.000;2023-04-23T01:59:20;4.67;;;3.97;;
6259;SDS011;3163;51.516;4.000;2023-04-23T02:01:46;3.63;;;3.33;;
6259;SDS011;3163;51.516;4.000;2023-04-23T02:04:13;4.17;;;3.77;;
6259;SDS011;3163;51.516;4.000;2023-04-23T02:06:43;4.23;;;3.80;;
6259;SDS011;3163;51.516;4.000;2023-04-23T02:09:11;5.60;;;4.17;;
6259;SDS011;3163;51.516;4.000;2023-04-23T02:11:36;4.20;;;3.80;;
6259;SDS011;3163;51.516;4.000;2023-04-23T02:14:02;5.00;;;4.13;;
6259;SDS011;3163;51.516;4.000;2023-04-23T02:16:29;4.73;;;3.90;;
6259;SDS011;3163;51.516;4.000;2023-04-23T02:18:55;6.03;;;5.13;;
6259;SDS011;3163;51.516;4.000;2023-04-23T02:21:24;4.20;;;3.80;;
6259;SDS011;3163;51.516;4.000;2023-04-23T02:23:51;6.40;;;5.53;;
6259;SDS011;3163;51.516;4.000;2023-04-23T02:26:17;7.03;;;3.93;;
6259;SDS011;3163;51.516;4.000;2023-04-23T02:28:43;5.50;;;3.93;;
6259;SDS011;3163;51.516;4.000;2023-04-23T02:31:09;6.00;;;4.38;;
6259;SDS011;3163;51.516;4.000;2023-04-23T02:33:34;4.23;;;3.67;;
6259;SDS011;3163;51.516;4.000;2023-04-23T02:36:00;4.53;;;4.07;;
6259;SDS011;3163;51.516;4.000;2023-04-23T02:38:26;4.30;;;3.27;;
6259;SDS011;3163;51.516;4.000;2023-04-23T02:40:51;5.43;;;4.43;;
6259;SDS011;3163;51.516;4.000;2023-04-23T02:43:17;5.93;;;4.20;;
6259;SDS011;3163;51.516;4.000;2023-04-23T02:45:43;4.70;;;4.10;;
6259;SDS011;3163;51.516;4.000;2023-04-23T02:48:09;4.20;;;3.80;;
6259;SDS011;3163;51.516;4.000;2023-04-23T02:50:35;4.33;;;3.87;;
6259;SDS011;3163;51.516;4.000;2023-04-23T02:53:03;4.37;;;3.97;;
6259;SDS011;3163;51.516;4.000;2023-04-23T02:55:29;5.70;;;3.90;;
6259;SDS011;3163;51.516;4.000;2023-04-23T02:57:56;6.73;;;4.27;;
6259;SDS011;3163;51.516;4.000;2023-04-23T03:00:22;4.57;;;4.00;;
6259;SDS011;3163;51.516;4.000;2023-04-23T03:02:48;3.73;;;3.37;;
6259;SDS011;3163;51.516;4.000;2023-04-23T03:05:14;8.37;;;6.07;;
6259;SDS011;3163;51.516;4.000;2023-04-23T03:07:40;5.00;;;4.50;;
6259;SDS011;3163;51.516;4.000;2023-04-23T03:10:06;5.03;;;3.67;;
6259;SDS011;3163;51.516;4.000;2023-04-23T03:12:32;4.50;;;3.87;;
6259;SDS011;3163;51.516;4.000;2023-04-23T03:14:57;4.77;;;4.00;;
6259;SDS011;3163;51.516;4.000;2023-04-23T03:17:23;4.20;;;3.77;;
6259;SDS011;3163;51.516;4.000;2023-04-23T03:19:49;3.83;;;3.37;;
6259;SDS011;3163;51.516;4.000;2023-04-23T03:22:15;5.47;;;3.63;;
6259;SDS011;3163;51.516;4.000;2023-04-23T03:24:40;4.27;;;3.20;;
6259;SDS011;3163;51.516;4.000;2023-04-23T03:27:06;5.43;;;4.20;;
6259;SDS011;3163;51.516;4.000;2023-04-23T03:29:32;3.73;;;3.43;;
6259;SDS011;3163;51.516;4.000;2023-04-23T03:31:57;3.60;;;3.23;;
6259;SDS011;3163;51.516;4.000;2023-04-23T03:34:23;2.87;;;2.67;;
6259;SDS011;3163;51.516;4.000;2023-04-23T03:36:49;3.90;;;3.50;;
6259;SDS011;3163;51.516;4.000;2023-04-23T03:39:15;4.43;;;3.90;;
6259;SDS011;3163;51.516;4.000;2023-04-23T03:41:40;4.70;;;3.63;;
6259;SDS011;3163;51.516;4.000;2023-04-23T03:44:06;3.63;;;3.33;;
6259;SDS011;3163;51.516;4.000;2023-04-23T03:46:31;4.73;;;3.83;;
6259;SDS011;3163;51.516;4.000;2023-04-23T03:48:57;3.80;;;3.50;;
6259;SDS011;3163;51.516;4.000;2023-04-23T03:51:23;5.23;;;3.80;;
6259;SDS011;3163;51.516;4.000;2023-04-23T03:53:48;4.30;;;3.87;;
6259;SDS011;3163;51.516;4.000;2023-04-23T03:56:14;3.80;;;3.50;;
6259;SDS011;3163;51.516;4.000;2023-04-23T03:58:40;4.80;;;4.20;;
6259;SDS011;3163;51.516;4.000;2023-04-23T04:01:06;5.20;;;4.40;;
6259;SDS011;3163;51.516;4.000;2023-04-23T04:03:32;3.83;;;3.20;;
6259;SDS011;3163;51.516;4.000;2023-04-23T04:05:58;4.23;;;3.83;;
6259;SDS011;3163;51.516;4.000;2023-04-23T04:08:23;4.60;;;3.63;;
6259;SDS011;3163;51.516;4.000;2023-04-23T04:10:50;4.23;;;3.87;;
6259;SDS011;3163;51.516;4.000;2023-04-23T04:13:16;5.32;;;4.55;;
6259;SDS011;3163;51.516;4.000;2023-04-23T04:15:41;4.23;;;3.83;;
6259;SDS011;3163;51.516;4.000;2023-04-23T04:18:07;4.70;;;3.73;;
6259;SDS011;3163;51.516;4.000;2023-04-23T04:20:33;4.72;;;4.10;;
6259;SDS011;3163;51.516;4.000;2023-04-23T04:22:58;3.77;;;3.33;;
6259;SDS011;3163;51.516;4.000;2023-04-23T04:25:24;4.93;;;3.70;;
6259;SDS011;3163;51.516;4.000;2023-04-23T04:27:52;4.93;;;3.40;;
6259;SDS011;3163;51.516;4.000;2023-04-23T04:30:18;4.33;;;3.70;;
6259;SDS011;3163;51.516;4.000;2023-04-23T04:32:45;4.13;;;3.73;;
6259;SDS011;3163;51.516;4.000;2023-04-23T04:35:11;4.23;;;3.83;;
6259;SDS011;3163;51.516;4.000;2023-04-23T04:37:38;4.60;;;3.50;;
6259;SDS011;3163;51.516;4.000;2023-04-23T04:40:04;8.00;;;5.53;;
6259;SDS011;3163;51.516;4.000;2023-04-23T04:42:31;3.77;;;3.10;;
6259;SDS011;3163;51.516;4.000;2023-04-23T04:44:57;3.90;;;3.17;;
6259;SDS011;3163;51.516;4.000;2023-04-23T04:47:23;6.03;;;3.93;;
6259;SDS011;3163;51.516;4.000;2023-04-23T04:49:49;3.53;;;3.13;;
6259;SDS011;3163;51.516;4.000;2023-04-23T04:52:15;3.80;;;3.50;;
6259;SDS011;3163;51.516;4.000;2023-04-23T04:54:41;4.17;;;3.33;;
6259;SDS011;3163;51.516;4.000;2023-04-23T04:57:07;4.87;;;3.57;;
6259;SDS011;3163;51.516;4.000;2023-04-23T04:59:33;4.27;;;3.43;;
6259;SDS011;3163;51.516;4.000;2023-04-23T05:01:58;3.63;;;3.10;;
6259;SDS011;3163;51.516;4.000;2023-04-23T05:04:24;3.47;;;3.17;;
6259;SDS011;3163;51.516;4.000;2023-04-23T05:06:50;4.13;;;3.23;;
6259;SDS011;3163;51.516;4.000;2023-04-23T05:09:16;4.90;;;4.30;;
6259;SDS011;3163;51.516;4.000;2023-04-23T05:11:41;4.07;;;3.67;;
6259;SDS011;3163;51.516;4.000;2023-04-23T05:14:07;4.00;;;3.60;;
6259;SDS011;3163;51.516;4.000;2023-04-23T05:16:33;4.38;;;3.90;;
6259;SDS011;3163;51.516;4.000;2023-04-23T05:18:59;4.50;;;3.43;;
6259;SDS011;3163;51.516;4.000;2023-04-23T05:21:24;3.70;;;3.00;;
6259;SDS011;3163;51.516;4.000;2023-04-23T05:23:51;2.90;;;2.70;;
6259;SDS011;3163;51.516;4.000;2023-04-23T05:26:20;3.20;;;2.90;;
6259;SDS011;3163;51.516;4.000;2023-04-23T05:28:46;3.13;;;2.80;;
6259;SDS011;3163;51.516;4.000;2023-04-23T05:31:11;3.23;;;2.93;;
6259;SDS011;3163;51.516;4.000;2023-04-23T05:33:37;3.13;;;2.83;;
6259;SDS011;3163;51.516;4.000;2023-04-23T05:36:03;3.23;;;2.70;;
6259;SDS011;3163;51.516;4.000;2023-04-23T05:38:28;4.30;;;3.50;;
6259;SDS011;3163;51.516;4.000;2023-04-23T05:40:54;4.07;;;2.90;;
6259;SDS011;3163;51.516;4.000;2023-04-23T05:43:20;4.27;;;3.40;;
6259;SDS011;3163;51.516;4.000;2023-04-23T05:45:45;3.87;;;3.47;;
6259;SDS011;3163;51.516;4.000;2023-04-23T05:48:11;4.07;;;3.30;;
6259;SDS011;3163;51.516;4.000;2023-04-23T05:50:36;4.43;;;3.47;;
6259;SDS011;3163;51.516;4.000;2023-04-23T05:53:02;2.93;;;2.57;;
6259;SDS011;3163;51.516;4.000;2023-04-23T05:55:28;3.57;;;2.70;;
6259;SDS011;3163;51.516;4.000;2023-04-23T05:57:53;4.27;;;2.60;;
6259;SDS011;3163;51.516;4.000;2023-04-23T06:00:19;7.20;;;3.20;;
6259;SDS011;3163;51.516;4.000;2023-04-23T06:02:45;4.63;;;3.00;;
6259;SDS011;3163;51.516;4.000;2023-04-23T06:05:11;3.83;;;3.30;;
6259;SDS011;3163;51.516;4.000;2023-04-23T06:07:37;3.23;;;2.90;;
6259;SDS011;3163;51.516;4.000;2023-04-23T06:10:03;3.80;;;3.30;;
6259;SDS011;3163;51.516;4.000;2023-04-23T06:12:29;6.28;;;3.33;;
6259;SDS011;3163;51.516;4.000;2023-04-23T06:14:56;3.63;;;3.27;;
6259;SDS011;3163;51.516;4.000;2023-04-23T06:17:21;3.37;;;3.00;;
6259;SDS011;3163;51.516;4.000;2023-04-23T06:19:47;3.17;;;2.40;;
6259;SDS011;3163;51.516;4.000;2023-04-23T06:22:13;4.13;;;2.77;;
6259;SDS011;3163;51.516;4.000;2023-04-23T06:24:38;3.00;;;2.60;;
6259;SDS011;3163;51.516;4.000;2023-04-23T06:27:04;3.13;;;2.40;;
6259;SDS011;3163;51.516;4.000;2023-04-23T06:29:30;3.20;;;2.70;;
6259;SDS011;3163;51.516;4.000;2023-04-23T06:31:56;2.97;;;2.67;;
6259;SDS011;3163;51.516;4.000;2023-04-23T06:34:25;2.77;;;2.20;;
6259;SDS011;3163;51.516;4.000;2023-04-23T06:36:50;3.17;;;2.60;;
6259;SDS011;3163;51.516;4.000;2023-04-23T06:39:16;4.90;;;2.63;;
6259;SDS011;3163;51.516;4.000;2023-04-23T06:41:42;3.07;;;2.77;;
6259;SDS011;3163;51.516;4.000;2023-04-23T06:44:07;4.73;;;3.17;;
6259;SDS011;3163;51.516;4.000;2023-04-23T06:46:33;5.03;;;2.63;;
6259;SDS011;3163;51.516;4.000;2023-04-23T06:48:59;4.90;;;2.50;;
6259;SDS011;3163;51.516;4.000;2023-04-23T06:51:25;5.70;;;2.27;;
6259;SDS011;3163;51.516;4.000;2023-04-23T06:53:51;2.07;;;1.87;;
6259;SDS011;3163;51.516;4.000;2023-04-23T06:56:18;3.13;;;2.50;;
6259;SDS011;3163;51.516;4.000;2023-04-23T06:58:44;3.93;;;2.47;;
6259;SDS011;3163;51.516;4.000;2023-04-23T07:01:09;2.60;;;2.37;;
6259;SDS011;3163;51.516;4.000;2023-04-23T07:03:35;4.80;;;2.40;;
6259;SDS011;3163;51.516;4.000;2023-04-23T07:06:01;2.30;;;2.03;;
6259;SDS011;3163;51.516;4.000;2023-04-23T07:08:27;4.05;;;3.00;;
6259;SDS011;3163;51.516;4.000;2023-04-23T07:10:53;3.17;;;2.30;;
6259;SDS011;3163;51.516;4.000;2023-04-23T07:13:18;2.37;;;2.07;;
6259;SDS011;3163;51.516;4.000;2023-04-23T07:15:44;6.17;;;2.80;;
6259;SDS011;3163;51.516;4.000;2023-04-23T07:18:10;5.43;;;2.20;;
6259;SDS011;3163;51.516;4.000;2023-04-23T07:20:36;2.40;;;2.03;;
6259;SDS011;3163;51.516;4.000;2023-04-23T07:23:02;4.93;;;2.60;;
6259;SDS011;3163;51.516;4.000;2023-04-23T07:25:28;3.97;;;3.20;;
6259;SDS011;3163;51.516;4.000;2023-04-23T07:27:55;3.50;;;2.20;;
6259;SDS011;3163;51.516;4.000;2023-04-23T07:30:21;4.83;;;3.27;;
6259;SDS011;3163;51.516;4.000;2023-04-23T07:32:48;7.07;;;2.83;;
6259;SDS011;3163;51.516;4.000;2023-04-23T07:35:14;3.03;;;2.10;;
6259;SDS011;3163;51.516;4.000;2023-04-23T07:37:40;2.80;;;2.60;;
6259;SDS011;3163;51.516;4.000;2023-04-23T07:40:05;4.57;;;2.63;;
6259;SDS011;3163;51.516;4.000;2023-04-23T07:42:32;4.47;;;2.47;;
6259;SDS011;3163;51.516;4.000;2023-04-23T07:44:58;6.07;;;3.00;;
6259;SDS011;3163;51.516;4.000;2023-04-23T07:47:23;7.17;;;3.13;;
6259;SDS011;3163;51.516;4.000;2023-04-23T07:49:49;5.90;;;2.50;;
6259;SDS011;3163;51.516;4.000;2023-04-23T07:52:15;3.97;;;3.13;;
6259;SDS011;3163;51.516;4.000;2023-04-23T07:54:41;6.23;;;3.87;;
6259;SDS011;3163;51.516;4.000;2023-04-23T07:57:07;6.30;;;3.37;;
6259;SDS011;3163;51.516;4.000;2023-04-23T07:59:33;8.18;;;4.03;;
6259;SDS011;3163;51.516;4.000;2023-04-23T08:01:58;4.47;;;2.87;;
6259;SDS011;3163;51.516;4.000;2023-04-23T08:04:24;3.40;;;2.70;;
6259;SDS011;3163;51.516;4.000;2023-04-23T08:06:50;6.15;;;4.00;;
6259;SDS011;3163;51.516;4.000;2023-04-23T08:09:15;7.37;;;3.73;;
6259;SDS011;3163;51.516;4.000;2023-04-23T08:11:41;7.47;;;3.47;;
6259;SDS011;3163;51.516;4.000;2023-04-23T08:14:07;4.27;;;3.13;;
6259;SDS011;3163;51.516;4.000;2023-04-23T08:16:32;4.57;;;2.70;;
6259;SDS011;3163;51.516;4.000;2023-04-23T08:18:58;3.27;;;2.63;;
6259;SDS011;3163;51.516;4.000;2023-04-23T08:21:24;6.53;;;3.30;;
6259;SDS011;3163;51.516;4.000;2023-04-23T08:23:51;3.53;;;2.70;;
6259;SDS011;3163;51.516;4.000;2023-04-23T08:26:17;8.53;;;4.20;;
6259;SDS011;3163;51.516;4.000;2023-04-23T08:28:42;6.57;;;2.90;;
6259;SDS011;3163;51.516;4.000;2023-04-23T08:31:10;2.60;;;2.20;;
6259;SDS011;3163;51.516;4.000;2023-04-23T08:33:36;5.90;;;2.83;;
6259;SDS011;3163;51.516;4.000;2023-04-23T08:36:02;5.60;;;3.37;;
6259;SDS011;3163;51.516;4.000;2023-04-23T08:38:28;6.03;;;2.93;;
6259;SDS011;3163;51.516;4.000;2023-04-23T08:40:55;4.07;;;2.90;;
6259;SDS011;3163;51.516;4.000;2023-04-23T08:43:23;5.87;;;3.30;;
6259;SDS011;3163;51.516;4.000;2023-04-23T08:46:02;6.83;;;2.97;;
6259;SDS011;3163;51.516;4.000;2023-04-23T08:48:30;7.40;;;2.70;;
6259;SDS011;3163;51.516;4.000;2023-04-23T08:51:00;5.70;;;2.60;;
6259;SDS011;3163;51.516;4.000;2023-04-23T08:53:28;9.93;;;4.10;;
6259;SDS011;3163;51.516;4.000;2023-04-23T08:55:56;7.30;;;4.00;;
6259;SDS011;3163;51.516;4.000;2023-04-23T08:58:23;5.13;;;4.27;;
6259;SDS011;3163;51.516;4.000;2023-04-23T09:00:52;8.10;;;3.17;;
6259;SDS011;3163;51.516;4.000;2023-04-23T09:03:18;10.30;;;3.80;;
6259;SDS011;3163;51.516;4.000;2023-04-23T09:05:45;6.10;;;3.47;;
6259;SDS011;3163;51.516;4.000;2023-04-23T09:08:11;5.70;;;3.00;;
6259;SDS011;3163;51.516;4.000;2023-04-23T09:10:39;6.27;;;3.00;;
6259;SDS011;3163;51.516;4.000;2023-04-23T09:13:06;5.97;;;2.90;;
6259;SDS011;3163;51.516;4.000;2023-04-23T09:15:32;5.20;;;2.50;;
6259;SDS011;3163;51.516;4.000;2023-04-23T09:18:02;7.83;;;2.97;;
6259;SDS011;3163;51.516;4.000;2023-04-23T09:20:28;5.80;;;2.10;;
6259;SDS011;3163;51.516;4.000;2023-04-23T09:22:54;2.53;;;2.00;;
6259;SDS011;3163;51.516;4.000;2023-04-23T09:25:22;3.63;;;2.00;;
6259;SDS011;3163;51.516;4.000;2023-04-23T09:27:49;3.40;;;2.27;;
6259;SDS011;3163;51.516;4.000;2023-04-23T09:30:15;5.00;;;2.00;;
6259;SDS011;3163;51.516;4.000;2023-04-23T09:32:42;4.97;;;1.90;;
6259;SDS011;3163;51.516;4.000;2023-04-23T09:35:14;5.73;;;2.27;;
6259;SDS011;3163;51.516;4.000;2023-04-23T09:37:41;4.90;;;1.90;;
6259;SDS011;3163;51.516;4.000;2023-04-23T09:40:12;3.40;;;1.80;;
6259;SDS011;3163;51.516;4.000;2023-04-23T09:42:39;2.27;;;1.50;;
6259;SDS011;3163;51.516;4.000;2023-04-23T09:45:05;2.10;;;1.50;;
6259;SDS011;3163;51.516;4.000;2023-04-23T09:47:39;1.57;;;1.07;;
6259;SDS011;3163;51.516;4.000;2023-04-23T09:50:07;2.00;;;1.37;;
6259;SDS011;3163;51.516;4.000;2023-04-23T09:52:37;4.30;;;1.80;;
6259;SDS011;3163;51.516;4.000;2023-04-23T09:55:03;1.70;;;1.30;;
6259;SDS011;3163;51.516;4.000;2023-04-23T09:57:36;2.97;;;1.47;;
6259;SDS011;3163;51.516;4.000;2023-04-23T10:00:12;1.17;;;1.17;;
6259;SDS011;3163;51.516;4.000;2023-04-23T10:02:46;3.63;;;1.93;;
6259;SDS011;3163;51.516;4.000;2023-04-23T10:05:16;3.90;;;1.50;;
6259;SDS011;3163;51.516;4.000;2023-04-23T10:07:43;3.07;;;1.23;;
6259;SDS011;3163;51.516;4.000;2023-04-23T10:10:16;1.27;;;0.97;;
6259;SDS011;3163;51.516;4.000;2023-04-23T10:12:43;3.70;;;1.33;;
6259;SDS011;3163;51.516;4.000;2023-04-23T10:15:10;5.47;;;1.43;;
6259;SDS011;3163;51.516;4.000;2023-04-23T10:17:37;2.83;;;1.23;;
6259;SDS011;3163;51.516;4.000;2023-04-23T10:20:03;1.13;;;0.80;;
6259;SDS011;3163;51.516;4.000;2023-04-23T10:22:32;1.47;;;1.07;;
6259;SDS011;3163;51.516;4.000;2023-04-23T10:24:59;0.90;;;0.87;;
6259;SDS011;3163;51.516;4.000;2023-04-23T10:27:28;5.33;;;1.20;;
6259;SDS011;3163;51.516;4.000;2023-04-23T10:29:58;1.60;;;1.00;;
6259;SDS011;3163;51.516;4.000;2023-04-23T10:32:25;3.23;;;0.93;;
6259;SDS011;3163;51.516;4.000;2023-04-23T10:34:52;2.37;;;1.10;;
6259;SDS011;3163;51.516;4.000;2023-04-23T10:37:18;1.17;;;0.93;;
6259;SDS011;3163;51.516;4.000;2023-04-23T10:39:46;1.93;;;0.90;;
6259;SDS011;3163;51.516;4.000;2023-04-23T10:42:14;1.17;;;0.90;;
6259;SDS011;3163;51.516;4.000;2023-04-23T10:44:41;6.43;;;0.97;;
6259;SDS011;3163;51.516;4.000;2023-04-23T10:47:14;3.13;;;1.20;;
6259;SDS011;3163;51.516;4.000;2023-04-23T10:49:40;3.73;;;1.40;;
6259;SDS011;3163;51.516;4.000;2023-04-23T10:52:08;3.47;;;1.10;;
6259;SDS011;3163;51.516;4.000;2023-04-23T10:54:38;1.20;;;1.10;;
6259;SDS011;3163;51.516;4.000;2023-04-23T10:57:06;2.20;;;1.10;;
6259;SDS011;3163;51.516;4.000;2023-04-23T10:59:33;3.75;;;0.80;;
6259;SDS011;3163;51.516;4.000;2023-04-23T11:02:06;1.67;;;0.90;;
6259;SDS011;3163;51.516;4.000;2023-04-23T11:04:33;1.10;;;0.90;;
6259;SDS011;3163;51.516;4.000;2023-04-23T11:07:06;5.10;;;0.90;;
6259;SDS011;3163;51.516;4.000;2023-04-23T11:12:03;6.23;;;1.10;;
6259;SDS011;3163;51.516;4.000;2023-04-23T11:14:41;0.80;;;0.63;;
6259;SDS011;3163;51.516;4.000;2023-04-23T11:17:11;0.80;;;0.80;;
6259;SDS011;3163;51.516;4.000;2023-04-23T11:19:39;1.50;;;1.30;;
6259;SDS011;3163;51.516;4.000;2023-04-23T11:22:15;0.80;;;0.70;;
6259;SDS011;3163;51.516;4.000;2023-04-23T11:24:44;3.20;;;1.33;;
6259;SDS011;3163;51.516;4.000;2023-04-23T11:27:14;0.93;;;0.60;;
6259;SDS011;3163;51.516;4.000;2023-04-23T11:29:42;2.07;;;0.60;;
6259;SDS011;3163;51.516;4.000;2023-04-23T11:32:09;3.97;;;0.83;;
6259;SDS011;3163;51.516;4.000;2023-04-23T11:34:40;0.80;;;0.43;;
6259;SDS011;3163;51.516;4.000;2023-04-23T11:37:08;2.10;;;0.60;;
6259;SDS011;3163;51.516;4.000;2023-04-23T11:39:35;3.77;;;1.13;;
6259;SDS011;3163;51.516;4.000;2023-04-23T11:42:01;4.40;;;1.00;;
6259;SDS011;3163;51.516;4.000;2023-04-23T11:44:27;1.23;;;0.93;;
6259;SDS011;3163;51.516;4.000;2023-04-23T11:46:53;2.30;;;0.93;;
6259;SDS011;3163;51.516;4.000;2023-04-23T11:49:19;2.97;;;1.10;;
6259;SDS011;3163;51.516;4.000;2023-04-23T11:51:47;1.67;;;1.07;;
6259;SDS011;3163;51.516;4.000;2023-04-23T11:54:13;1.03;;;0.77;;
6259;SDS011;3163;51.516;4.000;2023-04-23T11:56:39;5.43;;;1.65;;
6259;SDS011;3163;51.516;4.000;2023-04-23T11:59:05;4.37;;;1.00;;
6259;SDS011;3163;51.516;4.000;2023-04-23T12:01:46;1.57;;;1.13;;
6259;SDS011;3163;51.516;4.000;2023-04-23T12:04:18;5.03;;;1.50;;
6259;SDS011;3163;51.516;4.000;2023-04-23T12:06:48;4.63;;;1.20;;
6259;SDS011;3163;51.516;4.000;2023-04-23T12:09:15;1.53;;;0.90;;
6259;SDS011;3163;51.516;4.000;2023-04-23T12:11:42;5.77;;;1.13;;
6259;SDS011;3163;51.516;4.000;2023-04-23T12:14:10;2.77;;;1.33;;
6259;SDS011;3163;51.516;4.000;2023-04-23T12:16:38;3.83;;;1.10;;
6259;SDS011;3163;51.516;4.000;2023-04-23T12:19:09;2.83;;;1.20;;
6259;SDS011;3163;51.516;4.000;2023-04-23T12:24:13;2.60;;;1.20;;
6259;SDS011;3163;51.516;4.000;2023-04-23T12:26:40;0.93;;;0.80;;
6259;SDS011;3163;51.516;4.000;2023-04-23T12:29:06;4.00;;;0.97;;
6259;SDS011;3163;51.516;4.000;2023-04-23T12:31:32;2.47;;;0.90;;
6259;SDS011;3163;51.516;4.000;2023-04-23T12:36:31;1.33;;;1.03;;
6259;SDS011;3163;51.516;4.000;2023-04-23T12:41:50;3.90;;;1.00;;
6259;SDS011;3163;51.516;4.000;2023-04-23T12:44:29;1.03;;;0.93;;
6259;SDS011;3163;51.516;4.000;2023-04-23T12:46:59;3.42;;;1.13;;
6259;SDS011;3163;51.516;4.000;2023-04-23T12:49:27;1.77;;;0.97;;
6259;SDS011;3163;51.516;4.000;2023-04-23T12:51:57;1.40;;;0.77;;
6259;SDS011;3163;51.516;4.000;2023-04-23T12:54:26;3.40;;;1.00;;
6259;SDS011;3163;51.516;4.000;2023-04-23T12:56:55;4.07;;;0.90;;
6259;SDS011;3163;51.516;4.000;2023-04-23T12:59:21;1.50;;;0.93;;
6259;SDS011;3163;51.516;4.000;2023-04-23T13:01:47;1.93;;;0.60;;
6259;SDS011;3163;51.516;4.000;2023-04-23T13:04:13;4.10;;;0.90;;
6259;SDS011;3163;51.516;4.000;2023-04-23T13:06:39;3.57;;;0.93;;
6259;SDS011;3163;51.516;4.000;2023-04-23T13:09:05;0.93;;;0.70;;
6259;SDS011;3163;51.516;4.000;2023-04-23T13:11:34;0.50;;;0.50;;
6259;SDS011;3163;51.516;4.000;2023-04-23T13:14:00;0.83;;;0.70;;
6259;SDS011;3163;51.516;4.000;2023-04-23T13:16:25;1.43;;;0.73;;
6259;SDS011;3163;51.516;4.000;2023-04-23T13:18:51;1.03;;;0.50;;
6259;SDS011;3163;51.516;4.000;2023-04-23T13:21:17;1.40;;;0.60;;
6259;SDS011;3163;51.516;4.000;2023-04-23T13:23:43;0.40;;;0.40;;
6259;SDS011;3163;51.516;4.000;2023-04-23T13:26:09;1.27;;;0.67;;
6259;SDS011;3163;51.516;4.000;2023-04-23T13:28:34;1.60;;;0.80;;
6259;SDS011;3163;51.516;4.000;2023-04-23T13:31:03;1.63;;;0.80;;
6259;SDS011;3163;51.516;4.000;2023-04-23T13:33:29;1.53;;;0.70;;
6259;SDS011;3163;51.516;4.000;2023-04-23T13:35:56;1.63;;;0.70;;
6259;SDS011;3163;51.516;4.000;2023-04-23T13:38:22;2.40;;;0.73;;
6259;SDS011;3163;51.516;4.000;2023-04-23T13:40:49;4.40;;;1.00;;
6259;SDS011;3163;51.516;4.000;2023-04-23T13:43:14;1.50;;;0.97;;
6259;SDS011;3163;51.516;4.000;2023-04-23T13:45:40;2.25;;;0.90;;
6259;SDS011;3163;51.516;4.000;2023-04-23T13:48:06;1.83;;;0.70;;
6259;SDS011;3163;51.516;4.000;2023-04-23T13:50:32;3.40;;;0.70;;
6259;SDS011;3163;51.516;4.000;2023-04-23T13:52:58;1.80;;;0.90;;
6259;SDS011;3163;51.516;4.000;2023-04-23T13:55:24;1.60;;;0.77;;
6259;SDS011;3163;51.516;4.000;2023-04-23T13:57:49;0.90;;;0.60;;
6259;SDS011;3163;51.516;4.000;2023-04-23T14:00:15;3.33;;;0.83;;
6259;SDS011;3163;51.516;4.000;2023-04-23T14:02:41;1.40;;;0.67;;
6259;SDS011;3163;51.516;4.000;2023-04-23T14:05:07;1.80;;;0.53;;
6259;SDS011;3163;51.516;4.000;2023-04-23T14:07:33;1.57;;;0.53;;
6259;SDS011;3163;51.516;4.000;2023-04-23T14:09:59;0.57;;;0.57;;
6259;SDS011;3163;51.516;4.000;2023-04-23T14:12:25;2.60;;;0.87;;
6259;SDS011;3163;51.516;4.000;2023-04-23T14:14:53;2.23;;;0.60;;
6259;SDS011;3163;51.516;4.000;2023-04-23T14:17:19;0.43;;;0.43;;
6259;SDS011;3163;51.516;4.000;2023-04-23T14:19:45;0.50;;;0.50;;
6259;SDS011;3163;51.516;4.000;2023-04-23T14:22:11;1.87;;;1.10;;
6259;SDS011;3163;51.516;4.000;2023-04-23T14:24:43;1.47;;;1.10;;
6259;SDS011;3163;51.516;4.000;2023-04-23T14:27:10;0.73;;;0.70;;
6259;SDS011;3163;51.516;4.000;2023-04-23T14:29:49;2.60;;;0.90;;
6259;SDS011;3163;51.516;4.000;2023-04-23T14:32:20;1.17;;;1.00;;
6259;SDS011;3163;51.516;4.000;2023-04-23T14:34:46;2.57;;;0.97;;
6259;SDS011;3163;51.516;4.000;2023-04-23T14:37:11;1.13;;;0.80;;
6259;SDS011;3163;51.516;4.000;2023-04-23T14:39:37;3.40;;;1.47;;
6259;SDS011;3163;51.516;4.000;2023-04-23T14:42:04;1.85;;;0.85;;
6259;SDS011;3163;51.516;4.000;2023-04-23T14:44:29;4.70;;;1.30;;
6259;SDS011;3163;51.516;4.000;2023-04-23T14:46:55;1.40;;;0.97;;
6259;SDS011;3163;51.516;4.000;2023-04-23T14:49:21;2.83;;;1.27;;
6259;SDS011;3163;51.516;4.000;2023-04-23T14:51:47;1.03;;;0.87;;
6259;SDS011;3163;51.516;4.000;2023-04-23T14:54:20;3.90;;;0.90;;
6259;SDS011;3163;51.516;4.000;2023-04-23T14:56:46;3.93;;;1.47;;
6259;SDS011;3163;51.516;4.000;2023-04-23T14:59:11;1.77;;;0.90;;
6259;SDS011;3163;51.516;4.000;2023-04-23T15:01:37;1.37;;;1.07;;
6259;SDS011;3163;51.516;4.000;2023-04-23T15:04:03;2.43;;;0.90;;
6259;SDS011;3163;51.516;4.000;2023-04-23T15:06:28;4.50;;;1.23;;
6259;SDS011;3163;51.516;4.000;2023-04-23T15:08:54;2.23;;;0.87;;
6259;SDS011;3163;51.516;4.000;2023-04-23T15:11:20;2.00;;;0.97;;
6259;SDS011;3163;51.516;4.000;2023-04-23T15:16:37;2.47;;;1.20;;
6259;SDS011;3163;51.516;4.000;2023-04-23T15:19:04;2.80;;;2.03;;
6259;SDS011;3163;51.516;4.000;2023-04-23T15:21:30;3.50;;;1.67;;
6259;SDS011;3163;51.516;4.000;2023-04-23T15:23:56;3.57;;;1.90;;
6259;SDS011;3163;51.516;4.000;2023-04-23T15:26:22;1.20;;;0.70;;